Time;durP1;ratioP1;P1;durP2;ratioP2;P2;SDS_P1;SDS_P2;PMS_P1;PMS_P2;Temp;Humidity;BMP_temperature;BMP_pressure;BME280_temperature;BME280_humidity;BME280_pressure;Samples;Min_cycle;Max_cycle;Signal;HPM_P1;HPM_P2
2022/07/23 00:00:00;;;;;;;6.82;2.30;;;15.50;99.90;;;;;;5099781;28;20047;-68
2022/07/23 00:02:25;;;;;;;9.43;3.22;;;15.40;99.90;;;;;;5105643;28;20093;-68
2022/07/23 00:04:51;;;;;;;9.63;3.17;;;15.40;99.90;;;;;;5088761;28;20076;-67
2022/07/23 00:07:17;;;;;;;8.18;2.60;;;15.40;99.90;;;;;;5088280;28;20040;-69
2022/07/23 00:09:42;;;;;;;8.57;2.97;;;15.40;99.90;;;;;;5106318;27;20294;-68
2022/07/23 00:12:08;;;;;;;8.15;2.70;;;15.40;99.90;;;;;;5106544;28;20126;-68
2022/07/23 00:14:34;;;;;;;9.27;3.25;;;15.30;99.90;;;;;;5105139;28;20452;-67
2022/07/23 00:16:59;;;;;;;6.60;3.00;;;15.30;99.90;;;;;;5104961;28;20105;-68
2022/07/23 00:19:25;;;;;;;9.85;3.15;;;15.30;99.90;;;;;;5105498;28;20424;-68
2022/07/23 00:21:51;;;;;;;10.05;3.35;;;15.30;99.90;;;;;;5080927;28;20402;-68
2022/07/23 00:24:16;;;;;;;8.20;3.95;;;15.20;99.90;;;;;;5103724;27;20028;-67
2022/07/23 00:26:42;;;;;;;13.18;3.78;;;15.20;99.90;;;;;;5108304;28;20036;-68
2022/07/23 00:29:08;;;;;;;10.52;3.58;;;15.20;99.90;;;;;;5086623;28;20392;-68
2022/07/23 00:31:33;;;;;;;8.35;3.83;;;15.10;99.90;;;;;;5099136;28;20453;-67
2022/07/23 00:34:01;;;;;;;8.30;4.30;;;15.10;99.90;;;;;;5098296;27;20047;-68
2022/07/23 00:36:27;;;;;;;9.48;4.25;;;15.10;99.90;;;;;;5104998;27;20047;-68
2022/07/23 00:38:53;;;;;;;7.95;3.83;;;15.00;99.90;;;;;;5081377;28;20047;-68
2022/07/23 00:41:19;;;;;;;6.38;3.53;;;15.00;99.90;;;;;;5103008;28;20050;-68
2022/07/23 00:43:45;;;;;;;6.57;3.95;;;15.00;99.90;;;;;;5084767;27;20039;-67
2022/07/23 00:46:11;;;;;;;9.13;3.70;;;14.90;99.90;;;;;;5098798;27;20036;-67
2022/07/23 00:48:40;;;;;;;10.77;4.15;;;14.90;99.90;;;;;;5097882;27;20081;-66
2022/07/23 00:51:05;;;;;;;8.13;3.80;;;14.80;99.90;;;;;;5099474;28;20101;-68
2022/07/23 00:53:31;;;;;;;8.55;3.70;;;14.80;99.90;;;;;;5100238;27;20039;-68
2022/07/23 00:55:58;;;;;;;7.72;3.67;;;14.80;99.90;;;;;;5099962;27;20027;-67
2022/07/23 00:58:24;;;;;;;6.50;3.55;;;14.80;99.90;;;;;;5096404;27;20213;-67
2022/07/23 01:00:50;;;;;;;6.10;3.90;;;14.80;99.90;;;;;;5100989;28;20130;-68
2022/07/23 01:03:16;;;;;;;7.03;3.72;;;14.70;99.90;;;;;;5081826;28;20040;-68
2022/07/23 01:05:42;;;;;;;10.88;4.22;;;14.70;99.90;;;;;;5101526;28;20491;-67
2022/07/23 01:08:07;;;;;;;5.85;3.55;;;14.70;99.90;;;;;;5098805;27;20039;-68
2022/07/23 01:10:33;;;;;;;8.07;4.05;;;14.70;99.90;;;;;;5082939;28;20047;-68
2022/07/23 01:13:04;;;;;;;6.85;3.92;;;14.70;99.90;;;;;;5084453;28;20054;-68
2022/07/23 01:15:34;;;;;;;9.65;3.72;;;14.70;99.90;;;;;;5100299;28;20102;-67
2022/07/23 01:18:00;;;;;;;5.80;3.17;;;14.70;99.90;;;;;;5100135;28;20508;-68
2022/07/23 01:20:26;;;;;;;8.02;3.67;;;14.60;99.90;;;;;;5101610;27;20133;-68
2022/07/23 01:22:53;;;;;;;6.35;3.35;;;14.70;99.90;;;;;;5085384;28;20039;-68
2022/07/23 01:25:20;;;;;;;5.88;3.30;;;14.70;99.90;;;;;;5101671;27;21055;-68
2022/07/23 01:27:45;;;;;;;6.95;3.53;;;14.70;99.90;;;;;;5096839;28;20428;-68
2022/07/23 01:30:14;;;;;;;6.35;3.25;;;14.70;99.90;;;;;;5100484;27;20133;-67
2022/07/23 01:32:40;;;;;;;8.57;3.70;;;14.70;99.90;;;;;;5088267;28;20441;-67
2022/07/23 01:35:06;;;;;;;5.47;3.38;;;14.70;99.90;;;;;;5108604;28;20385;-67
2022/07/23 01:37:32;;;;;;;9.68;3.58;;;14.70;99.90;;;;;;5082277;28;20032;-67
2022/07/23 01:39:58;;;;;;;6.10;4.00;;;14.70;99.90;;;;;;5098860;28;20097;-66
2022/07/23 01:42:25;;;;;;;13.48;3.88;;;14.70;99.90;;;;;;5098551;28;20036;-67
2022/07/23 01:44:51;;;;;;;5.73;3.17;;;14.80;99.90;;;;;;5101024;28;20036;-68
2022/07/23 01:47:16;;;;;;;7.60;3.22;;;14.80;99.90;;;;;;5064273;28;20796;-68
2022/07/23 01:49:42;;;;;;;11.10;4.25;;;14.80;99.90;;;;;;5103842;28;20039;-67
2022/07/23 01:52:10;;;;;;;9.77;3.40;;;14.80;99.90;;;;;;5100786;28;20060;-68
2022/07/23 01:54:39;;;;;;;;;;;14.80;99.90;;;;;;5108176;28;20764;-68
2022/07/23 01:57:08;;;;;;;7.57;3.42;;;14.80;99.90;;;;;;5098300;28;20208;-67
2022/07/23 01:59:35;;;;;;;11.25;3.78;;;14.80;99.90;;;;;;5082205;28;20063;-66
2022/07/23 02:02:01;;;;;;;9.55;4.25;;;14.80;99.90;;;;;;5102095;28;20048;-67
2022/07/23 02:04:26;;;;;;;12.50;4.10;;;14.80;99.90;;;;;;5090017;28;20539;-68
2022/07/23 02:06:52;;;;;;;6.05;3.72;;;14.80;99.90;;;;;;5105112;28;20044;-67
2022/07/23 02:09:19;;;;;;;10.25;4.47;;;14.80;99.90;;;;;;5106476;28;20035;-67
2022/07/23 02:11:45;;;;;;;12.43;4.22;;;14.90;99.90;;;;;;5101867;28;20039;-67
2022/07/23 02:14:11;;;;;;;15.93;5.07;;;14.90;99.90;;;;;;5087235;28;20047;-67
2022/07/23 02:16:36;;;;;;;7.82;4.28;;;14.90;99.90;;;;;;5082976;28;20469;-66
2022/07/23 02:19:03;;;;;;;10.18;4.57;;;14.90;99.90;;;;;;5106038;28;20085;-68
2022/07/23 02:21:29;;;;;;;7.05;4.43;;;14.90;99.90;;;;;;5111261;28;20051;-68
2022/07/23 02:23:54;;;;;;;11.10;4.32;;;14.90;99.90;;;;;;5105222;28;20453;-68
2022/07/23 02:26:20;;;;;;;15.50;5.43;;;14.90;99.90;;;;;;5102372;28;20040;-67
2022/07/23 02:28:46;;;;;;;6.72;4.65;;;14.90;99.90;;;;;;5092563;28;20087;-68
2022/07/23 02:31:11;;;;;;;7.90;4.50;;;14.90;99.90;;;;;;5102102;28;20124;-67
2022/07/23 02:33:37;;;;;;;10.25;4.18;;;14.90;99.90;;;;;;5101886;27;20039;-67
2022/07/23 02:36:03;;;;;;;6.82;4.38;;;15.00;99.90;;;;;;5102382;28;20092;-67
2022/07/23 02:38:28;;;;;;;8.90;4.25;;;14.90;99.90;;;;;;5111959;27;20040;-68
2022/07/23 02:40:54;;;;;;;7.07;4.20;;;15.00;99.90;;;;;;5111618;27;20049;-69
2022/07/23 02:43:20;;;;;;;7.05;4.30;;;15.00;99.90;;;;;;5106535;28;20044;-67
2022/07/23 02:45:45;;;;;;;12.18;4.47;;;15.00;99.90;;;;;;5066233;28;20105;-67
2022/07/23 02:48:14;;;;;;;12.48;4.45;;;15.00;99.90;;;;;;5090042;28;20126;-68
2022/07/23 02:50:40;;;;;;;11.80;4.40;;;15.00;99.90;;;;;;5104646;28;20424;-69
2022/07/23 02:53:05;;;;;;;6.63;4.38;;;15.00;99.90;;;;;;5110159;27;20050;-67
2022/07/23 02:55:34;;;;;;;8.82;3.97;;;15.00;99.90;;;;;;5104182;27;20085;-68
2022/07/23 02:58:00;;;;;;;8.00;4.47;;;15.00;99.90;;;;;;5069421;28;20231;-68
2022/07/23 03:00:28;;;;;;;10.70;4.45;;;15.00;99.90;;;;;;5103707;28;20167;-67
2022/07/23 03:02:54;;;;;;;9.50;5.03;;;15.00;99.90;;;;;;5110101;28;20403;-68
2022/07/23 03:05:19;;;;;;;8.77;4.70;;;15.00;99.90;;;;;;5109040;28;20122;-68
2022/07/23 03:07:45;;;;;;;10.45;3.75;;;15.00;99.90;;;;;;5113718;27;20404;-68
2022/07/23 03:10:10;;;;;;;8.40;3.67;;;15.00;99.90;;;;;;5105600;27;20129;-68
2022/07/23 03:12:39;;;;;;;7.80;3.60;;;15.00;99.90;;;;;;5112151;28;20110;-66
2022/07/23 03:15:07;;;;;;;5.38;3.70;;;15.00;99.90;;;;;;5108846;27;20121;-66
2022/07/23 03:17:32;;;;;;;7.07;3.33;;;15.00;99.90;;;;;;5093174;28;20051;-68
2022/07/23 03:19:58;;;;;;;7.40;4.25;;;15.00;99.90;;;;;;5109476;28;20043;-68
2022/07/23 03:22:23;;;;;;;10.52;3.95;;;14.90;99.90;;;;;;5105072;27;20077;-68
2022/07/23 03:24:55;;;;;;;6.88;3.97;;;15.00;99.90;;;;;;5105753;28;20042;-68
2022/07/23 03:27:22;;;;;;;11.52;4.15;;;15.00;99.90;;;;;;5085770;28;20081;-68
2022/07/23 03:29:50;;;;;;;8.10;3.72;;;15.00;99.90;;;;;;5108334;27;20052;-67
2022/07/23 03:32:15;;;;;;;8.73;3.45;;;14.90;99.90;;;;;;5102291;28;20036;-68
2022/07/23 03:34:41;;;;;;;7.15;3.45;;;14.90;99.90;;;;;;5084401;28;20058;-68
2022/07/23 03:37:07;;;;;;;5.47;3.00;;;14.90;99.90;;;;;;5100774;28;20063;-67
2022/07/23 03:39:32;;;;;;;9.60;4.20;;;14.90;99.90;;;;;;5102427;27;20035;-68
2022/07/23 03:41:58;;;;;;;5.63;3.40;;;14.90;99.90;;;;;;5068165;28;20355;-67
2022/07/23 03:44:24;;;;;;;8.57;3.60;;;14.90;99.90;;;;;;5106049;27;20485;-67
2022/07/23 03:46:49;;;;;;;7.72;3.28;;;14.90;99.90;;;;;;5106606;27;20047;-67
2022/07/23 03:49:15;;;;;;;6.53;3.28;;;14.90;99.90;;;;;;5094843;28;20040;-68
2022/07/23 03:51:41;;;;;;;6.53;3.78;;;15.00;99.90;;;;;;5108290;28;20405;-67
2022/07/23 03:54:09;;;;;;;8.30;3.47;;;15.00;99.90;;;;;;5090665;28;20047;-68
2022/07/23 03:56:36;;;;;;;12.55;3.50;;;15.00;99.90;;;;;;5103239;28;20498;-66
2022/07/23 03:59:02;;;;;;;8.43;3.67;;;15.00;99.90;;;;;;5092229;27;20149;-67
2022/07/23 04:01:27;;;;;;;11.13;3.35;;;15.00;99.90;;;;;;5105381;28;20036;-67
2022/07/23 04:03:53;;;;;;;7.43;3.88;;;14.90;99.90;;;;;;5089770;28;20409;-68
2022/07/23 04:06:20;;;;;;;6.72;3.53;;;15.00;99.90;;;;;;5108396;28;20062;-68
2022/07/23 04:08:45;;;;;;;8.40;3.10;;;15.00;99.90;;;;;;5089523;28;20043;-68
2022/07/23 04:11:11;;;;;;;8.00;3.35;;;15.00;99.90;;;;;;5090212;28;20338;-68
2022/07/23 04:13:37;;;;;;;6.70;2.90;;;15.00;99.90;;;;;;5103146;28;20035;-67
2022/07/23 04:16:03;;;;;;;6.05;2.90;;;15.00;99.90;;;;;;5101331;28;20541;-67
2022/07/23 04:18:29;;;;;;;7.38;2.83;;;15.00;99.90;;;;;;5088559;28;20067;-68
2022/07/23 04:20:55;;;;;;;7.80;3.45;;;15.00;99.90;;;;;;5089769;27;20078;-67
2022/07/23 04:23:20;;;;;;;14.10;3.25;;;15.00;99.90;;;;;;5074237;28;20035;-67
2022/07/23 04:25:46;;;;;;;9.38;3.10;;;15.00;99.90;;;;;;5088245;28;20040;-68
2022/07/23 04:28:12;;;;;;;7.18;2.75;;;15.00;99.90;;;;;;5104992;28;20093;-66
2022/07/23 04:30:38;;;;;;;5.95;2.75;;;15.10;99.90;;;;;;5080314;27;20417;-68
2022/07/23 04:33:06;;;;;;;11.02;4.07;;;15.10;99.90;;;;;;5086877;28;20453;-69
2022/07/23 04:35:39;;;;;;;7.78;3.15;;;15.10;99.90;;;;;;5103820;28;20046;-68
2022/07/23 04:38:07;;;;;;;7.07;3.13;;;15.10;99.90;;;;;;5100929;28;20040;-67
2022/07/23 04:40:36;;;;;;;8.55;3.58;;;15.10;99.90;;;;;;5089627;28;20066;-68
2022/07/23 04:43:02;;;;;;;7.13;3.45;;;15.10;99.90;;;;;;5083875;28;20442;-68
2022/07/23 04:45:27;;;;;;;7.85;3.75;;;15.10;99.90;;;;;;5110106;27;20066;-67
2022/07/23 04:47:53;;;;;;;8.63;3.58;;;15.10;99.90;;;;;;5103702;28;20512;-67
2022/07/23 04:50:21;;;;;;;8.82;3.50;;;15.10;99.90;;;;;;5084198;28;21329;-67
2022/07/23 04:52:48;;;;;;;8.25;3.42;;;15.10;99.90;;;;;;5083282;28;20135;-67
2022/07/23 04:55:14;;;;;;;10.18;4.22;;;15.10;99.90;;;;;;5083668;28;20092;-67
2022/07/23 04:57:40;;;;;;;6.97;3.45;;;15.10;99.90;;;;;;5099091;28;20046;-68
2022/07/23 05:00:07;;;;;;;9.00;4.13;;;15.10;99.90;;;;;;5100204;27;20047;-67
2022/07/23 05:02:35;;;;;;;7.13;3.88;;;15.10;99.90;;;;;;5095858;28;20485;-67
2022/07/23 05:05:05;;;;;;;9.27;3.80;;;15.10;99.90;;;;;;5098845;28;20122;-67
2022/07/23 05:07:30;;;;;;;10.05;4.15;;;15.10;99.90;;;;;;5083045;28;20102;-68
2022/07/23 05:09:56;;;;;;;6.75;3.63;;;15.10;99.90;;;;;;5101085;27;20426;-69
2022/07/23 05:12:22;;;;;;;9.05;4.10;;;15.20;99.90;;;;;;5096319;27;20046;-68
2022/07/23 05:14:51;;;;;;;8.50;3.58;;;15.20;99.90;;;;;;5100130;28;20373;-67
2022/07/23 05:17:17;;;;;;;7.05;3.40;;;15.30;99.90;;;;;;5101126;28;20505;-67
2022/07/23 05:19:44;;;;;;;7.90;3.60;;;15.30;99.90;;;;;;5098998;28;20044;-69
2022/07/23 05:22:10;;;;;;;7.70;3.70;;;15.30;99.90;;;;;;5063440;28;20082;-68
2022/07/23 05:24:35;;;;;;;5.47;3.88;;;15.30;99.90;;;;;;5101225;28;20031;-68
2022/07/23 05:27:04;;;;;;;5.70;3.70;;;15.40;99.90;;;;;;5101437;27;20078;-67
2022/07/23 05:29:29;;;;;;;7.32;3.85;;;15.40;99.90;;;;;;5083097;28;20041;-68
2022/07/23 05:31:56;;;;;;;7.75;4.20;;;15.40;99.90;;;;;;5098884;27;20056;-67
2022/07/23 05:34:22;;;;;;;7.25;3.58;;;15.40;99.90;;;;;;5098090;28;20040;-68
2022/07/23 05:36:48;;;;;;;7.53;3.45;;;15.40;99.90;;;;;;5078930;28;20058;-68
2022/07/23 05:39:14;;;;;;;6.65;3.35;;;15.40;99.90;;;;;;5085414;28;20492;-67
2022/07/23 05:41:40;;;;;;;7.18;3.05;;;15.40;99.90;;;;;;5081521;28;20133;-69
2022/07/23 05:44:05;;;;;;;6.35;3.15;;;15.40;99.90;;;;;;5098274;27;20569;-68
2022/07/23 05:46:34;;;;;;;5.88;3.38;;;15.40;99.90;;;;;;5101731;27;20046;-68
2022/07/23 05:49:00;;;;;;;7.47;3.38;;;15.40;99.90;;;;;;5101155;28;20043;-68
2022/07/23 05:51:26;;;;;;;8.13;2.58;;;15.50;99.90;;;;;;5080579;28;20036;-67
2022/07/23 05:53:52;;;;;;;6.68;2.92;;;15.50;99.90;;;;;;5099851;28;20036;-67
2022/07/23 05:56:18;;;;;;;7.25;2.90;;;15.60;99.90;;;;;;5099490;28;20032;-68
2022/07/23 05:58:44;;;;;;;5.53;2.60;;;15.70;99.90;;;;;;5099003;28;20050;-69
2022/07/23 06:01:11;;;;;;;5.80;2.45;;;15.80;99.90;;;;;;5061147;28;20050;-67
2022/07/23 06:03:37;;;;;;;10.60;2.72;;;15.80;99.90;;;;;;5095865;28;20047;-67
2022/07/23 06:06:04;;;;;;;5.20;2.25;;;15.90;99.90;;;;;;5097881;28;20039;-68
2022/07/23 06:08:30;;;;;;;7.43;2.50;;;16.00;99.90;;;;;;5098042;28;20032;-68
2022/07/23 06:10:55;;;;;;;6.25;2.20;;;16.00;99.90;;;;;;5103066;28;20046;-67
2022/07/23 06:13:21;;;;;;;6.60;2.70;;;16.00;99.90;;;;;;5099102;28;20039;-69
2022/07/23 06:15:47;;;;;;;5.82;2.35;;;16.00;99.90;;;;;;5098347;28;20043;-68
2022/07/23 06:18:12;;;;;;;8.20;2.40;;;16.10;99.90;;;;;;5095543;28;20059;-67
2022/07/23 06:20:38;;;;;;;4.88;2.30;;;16.10;99.90;;;;;;5099217;28;20054;-68
2022/07/23 06:23:04;;;;;;;4.18;2.40;;;16.10;99.90;;;;;;5099762;28;20478;-68
2022/07/23 06:25:30;;;;;;;9.30;2.60;;;16.10;99.90;;;;;;5099043;28;20441;-68
2022/07/23 06:27:55;;;;;;;7.82;2.38;;;16.10;99.90;;;;;;5098413;28;20208;-68
2022/07/23 06:30:21;;;;;;;4.80;2.08;;;16.10;99.90;;;;;;5081142;28;20036;-69
2022/07/23 06:32:50;;;;;;;7.00;2.20;;;16.10;99.90;;;;;;5100910;28;20130;-68
2022/07/23 06:35:15;;;;;;;6.57;2.50;;;16.10;99.90;;;;;;5098551;28;20035;-68
2022/07/23 06:37:41;;;;;;;4.43;2.30;;;16.20;99.90;;;;;;5100432;28;20046;-67
2022/07/23 06:40:08;;;;;;;8.82;2.22;;;16.20;99.90;;;;;;5099983;28;20381;-68
2022/07/23 06:42:36;;;;;;;4.40;2.22;;;16.20;99.90;;;;;;5097475;28;20039;-69
2022/07/23 06:45:05;;;;;;;5.32;2.58;;;16.20;99.90;;;;;;5075834;28;20043;-68
2022/07/23 06:47:31;;;;;;;6.30;2.33;;;16.40;99.90;;;;;;5078922;28;20123;-67
2022/07/23 06:49:57;;;;;;;5.10;2.40;;;16.40;99.90;;;;;;5098377;28;20038;-67
2022/07/23 06:52:23;;;;;;;4.47;2.13;;;16.40;99.90;;;;;;5105790;28;20118;-66
2022/07/23 06:54:52;;;;;;;6.85;2.30;;;16.40;99.90;;;;;;5059399;28;21406;-67
2022/07/23 06:57:21;;;;;;;4.50;2.45;;;16.50;99.90;;;;;;5100727;28;20039;-66
2022/07/23 06:59:46;;;;;;;4.95;2.67;;;16.50;99.90;;;;;;5099041;28;20048;-68
2022/07/23 07:02:12;;;;;;;5.40;2.63;;;16.60;99.90;;;;;;5095858;28;20438;-67
2022/07/23 07:04:38;;;;;;;6.43;2.67;;;16.70;99.90;;;;;;5074983;28;20052;-68
2022/07/23 07:07:04;;;;;;;4.47;2.30;;;16.80;99.90;;;;;;5098746;28;20473;-67
2022/07/23 07:09:29;;;;;;;5.32;2.30;;;16.90;99.90;;;;;;5097483;28;20093;-67
2022/07/23 07:11:56;;;;;;;5.15;2.10;;;17.00;99.90;;;;;;5103063;28;20471;-68
2022/07/23 07:14:22;;;;;;;4.93;1.80;;;17.20;99.90;;;;;;5100372;28;20394;-68
2022/07/23 07:16:47;;;;;;;6.13;1.60;;;17.30;99.90;;;;;;5096738;27;20046;-67
2022/07/23 07:19:13;;;;;;;5.38;1.77;;;17.40;99.90;;;;;;5102587;28;20044;-68
2022/07/23 07:21:39;;;;;;;4.10;1.60;;;17.50;99.90;;;;;;5103327;28;20042;-67
2022/07/23 07:24:06;;;;;;;2.80;1.48;;;17.50;99.90;;;;;;5093150;28;20513;-68
2022/07/23 07:26:34;;;;;;;1.83;1.10;;;17.60;99.90;;;;;;5108322;27;20119;-68
2022/07/23 07:29:00;;;;;;;4.72;1.20;;;17.80;99.90;;;;;;5101239;28;20142;-67
2022/07/23 07:31:26;;;;;;;6.15;1.20;;;18.00;99.90;;;;;;5072273;28;20054;-70
2022/07/23 07:33:52;;;;;;;4.18;1.67;;;18.20;99.90;;;;;;5109866;28;20047;-69
2022/07/23 07:36:17;;;;;;;1.23;0.80;;;18.40;99.90;;;;;;5106084;27;20039;-67
2022/07/23 07:38:45;;;;;;;1.65;0.80;;;18.50;99.90;;;;;;5088888;28;20536;-67
2022/07/23 07:41:12;;;;;;;2.15;1.02;;;18.70;99.90;;;;;;5102596;28;20055;-67
2022/07/23 07:43:37;;;;;;;2.03;0.95;;;18.80;99.90;;;;;;5105886;28;20039;-68
2022/07/23 07:46:04;;;;;;;0.77;0.73;;;19.00;99.90;;;;;;5086987;28;20036;-68
2022/07/23 07:48:30;;;;;;;1.20;0.80;;;19.10;99.90;;;;;;5104180;28;20097;-67
2022/07/23 07:50:55;;;;;;;1.33;0.80;;;19.10;99.90;;;;;;5106122;28;20051;-68
2022/07/23 07:53:21;;;;;;;3.70;0.90;;;19.00;99.90;;;;;;5097148;28;20048;-68
2022/07/23 07:55:50;;;;;;;1.13;0.85;;;18.90;99.90;;;;;;5107783;28;20035;-67
2022/07/23 07:58:16;;;;;;;2.45;0.90;;;18.80;99.90;;;;;;5087066;28;20040;-67
2022/07/23 08:00:41;;;;;;;2.50;0.90;;;18.80;99.90;;;;;;5108936;28;20314;-67
2022/07/23 08:03:07;;;;;;;3.55;1.55;;;18.70;99.90;;;;;;5100832;28;20043;-68
2022/07/23 08:05:33;;;;;;;1.95;0.80;;;18.70;99.90;;;;;;5102600;28;20109;-67
2022/07/23 08:07:59;;;;;;;2.47;0.95;;;18.80;99.90;;;;;;5086343;28;20097;-67
2022/07/23 08:10:26;;;;;;;2.45;1.25;;;18.90;99.90;;;;;;5098892;28;20811;-66
2022/07/23 08:12:55;;;;;;;4.15;1.42;;;18.90;99.90;;;;;;5101583;27;20130;-67
2022/07/23 08:15:25;;;;;;;2.35;1.27;;;18.90;99.90;;;;;;5082182;28;20050;-67
2022/07/23 08:17:52;;;;;;;5.38;1.23;;;18.80;99.90;;;;;;5103089;28;20405;-70
2022/07/23 08:20:19;;;;;;;2.50;1.13;;;18.90;99.90;;;;;;5068729;28;20522;-67
2022/07/23 08:22:56;;;;;;;0.98;0.88;;;18.90;99.90;;;;;;5101601;28;20651;-67
2022/07/23 08:25:24;;;;;;;1.42;0.75;;;18.80;99.90;;;;;;5083404;28;20057;-67
2022/07/23 08:27:53;;;;;;;1.60;0.80;;;18.80;99.90;;;;;;5104324;27;20058;-67
2022/07/23 08:30:20;;;;;;;6.85;1.02;;;18.80;99.90;;;;;;5101066;27;20040;-68
2022/07/23 08:32:49;;;;;;;1.75;0.90;;;18.90;99.90;;;;;;5107194;28;20040;-67
2022/07/23 08:35:19;;;;;;;3.67;0.90;;;19.10;99.90;;;;;;5089129;28;20050;-67
2022/07/23 08:37:44;;;;;;;4.78;1.00;;;19.10;99.90;;;;;;5086067;27;20051;-68
2022/07/23 08:40:11;;;;;;;3.88;0.95;;;19.20;99.90;;;;;;5107684;28;20043;-68
2022/07/23 08:42:39;;;;;;;1.15;0.77;;;19.40;99.90;;;;;;5094740;28;20071;-68
2022/07/23 08:45:08;;;;;;;1.13;0.82;;;19.40;99.90;;;;;;5089877;27;20492;-66
2022/07/23 08:47:36;;;;;;;1.92;0.80;;;19.30;99.90;;;;;;5116267;27;20100;-67
2022/07/23 08:50:02;;;;;;;2.92;1.10;;;19.20;99.90;;;;;;5103885;28;20040;-68
2022/07/23 08:52:30;;;;;;;6.88;1.30;;;19.30;99.90;;;;;;5105883;28;20039;-66
2022/07/23 08:54:57;;;;;;;3.50;0.95;;;19.30;99.90;;;;;;5099062;28;20429;-68
2022/07/23 08:57:22;;;;;;;1.60;0.90;;;19.20;99.90;;;;;;5106042;28;20059;-67
2022/07/23 08:59:48;;;;;;;2.55;0.90;;;19.20;99.90;;;;;;5103801;28;20051;-68
2022/07/23 09:02:14;;;;;;;3.38;0.90;;;19.10;99.90;;;;;;5099548;27;20059;-68
2022/07/23 09:04:42;;;;;;;3.63;1.17;;;19.20;99.90;;;;;;5090058;28;20512;-68
2022/07/23 09:07:08;;;;;;;3.03;1.00;;;19.50;99.90;;;;;;5099720;28;21304;-68
2022/07/23 09:09:34;;;;;;;1.92;0.90;;;19.70;99.90;;;;;;5102266;28;20035;-68
2022/07/23 09:12:09;;;;;;;2.72;1.00;;;19.80;99.90;;;;;;5101456;27;20115;-67
2022/07/23 09:14:40;;;;;;;2.97;1.05;;;19.90;99.60;;;;;;5098824;28;20199;-67
2022/07/23 09:17:10;;;;;;;1.73;0.88;;;20.00;99.30;;;;;;5083500;28;20093;-67
2022/07/23 09:19:36;;;;;;;4.28;1.20;;;19.90;99.90;;;;;;5101878;28;20055;-67
2022/07/23 09:22:23;;;;;;;1.63;1.00;;;19.90;99.90;;;;;;5096828;28;20359;-68
2022/07/23 09:25:08;;;;;;;5.97;1.08;;;19.90;99.90;;;;;;5083626;28;20047;-66
2022/07/23 09:27:59;;;;;;;3.45;1.10;;;19.90;99.90;;;;;;5107608;28;20496;-67
2022/07/23 09:30:27;;;;;;;1.35;0.90;;;19.90;99.90;;;;;;5077539;28;20058;-68
2022/07/23 09:33:13;;;;;;;2.92;1.17;;;20.00;98.60;;;;;;5104740;27;20040;-68
2022/07/23 09:35:52;;;;;;;4.78;1.05;;;19.90;98.80;;;;;;5107462;28;20521;-67
2022/07/23 09:38:20;;;;;;;2.25;1.05;;;19.80;99.30;;;;;;5089212;28;20389;-68
2022/07/23 09:40:47;;;;;;;3.22;1.02;;;19.70;99.50;;;;;;5087806;28;20055;-68
2022/07/23 09:43:32;;;;;;;2.08;1.20;;;19.80;98.70;;;;;;5098009;27;20438;-67
2022/07/23 09:46:25;;;;;;;2.50;1.35;;;19.70;98.10;;;;;;5100148;28;20154;-67
2022/07/23 09:48:56;;;;;;;3.35;1.05;;;19.70;99.80;;;;;;5085243;28;20052;-67
2022/07/23 09:51:30;;;;;;;1.48;0.80;;;19.80;99.70;;;;;;5074033;28;20040;-67
2022/07/23 09:53:59;;;;;;;2.63;1.00;;;19.80;99.90;;;;;;5096354;28;20118;-69
2022/07/23 09:56:27;;;;;;;2.17;0.98;;;20.00;98.80;;;;;;5103849;28;20039;-68
2022/07/23 09:59:03;;;;;;;3.10;1.20;;;20.00;98.50;;;;;;5098924;28;20051;-66
2022/07/23 10:01:31;;;;;;;1.83;0.95;;;20.00;98.90;;;;;;5084933;28;20035;-66
2022/07/23 10:03:57;;;;;;;;;;;20.20;99.60;;;;;;5087372;28;20039;-67
2022/07/23 10:06:23;;;;;;;2.72;1.05;;;20.40;99.00;;;;;;5108179;28;19920;-67
2022/07/23 10:08:53;;;;;;;2.30;1.08;;;20.40;98.50;;;;;;5103352;28;20040;-68
2022/07/23 10:11:19;;;;;;;2.95;0.95;;;20.50;98.20;;;;;;5097281;28;20155;-67
2022/07/23 10:13:52;;;;;;;3.97;1.30;;;20.50;98.50;;;;;;5103063;28;20525;-68
2022/07/23 10:16:19;;;;;;;2.92;1.00;;;20.40;99.50;;;;;;5082151;28;20486;-68
2022/07/23 10:18:48;;;;;;;5.82;1.52;;;20.60;99.40;;;;;;5108479;28;20048;-68
2022/07/23 10:21:23;;;;;;;3.38;1.00;;;20.70;99.00;;;;;;5074564;28;20143;-66
2022/07/23 10:24:27;;;;;;;3.63;1.20;;;20.70;99.20;;;;;;5098464;28;20039;-66
2022/07/23 10:27:17;;;;;;;2.65;1.40;;;20.70;99.40;;;;;;5099324;28;20069;-68
2022/07/23 10:29:46;;;;;;;6.28;1.58;;;20.60;99.90;;;;;;5097096;28;20040;-67
2022/07/23 10:32:34;;;;;;;4.10;1.10;;;20.60;99.90;;;;;;5077259;28;20465;-67
2022/07/23 10:35:25;;;;;;;7.13;1.13;;;20.70;99.20;;;;;;5085009;28;20042;-67
2022/07/23 10:38:12;;;;;;;6.38;1.40;;;20.60;98.90;;;;;;5065053;28;20062;-69
2022/07/23 10:41:14;;;;;;;4.00;1.33;;;20.50;98.80;;;;;;5089509;28;20089;-68
2022/07/23 10:43:39;;;;;;;2.55;1.10;;;20.40;99.30;;;;;;5001854;28;20574;-67
2022/07/23 10:46:33;;;;;;;3.05;1.30;;;20.40;99.90;;;;;;5090415;28;20075;-67
2022/07/23 10:49:22;;;;;;;3.60;1.20;;;20.50;99.90;;;;;;5108004;28;20047;-67
2022/07/23 10:52:16;;;;;;;3.63;1.58;;;20.60;99.90;;;;;;5106685;28;20031;-67
2022/07/23 10:54:47;;;;;;;4.30;1.38;;;20.80;99.90;;;;;;5115366;28;20044;-67
2022/07/23 10:57:14;;;;;;;3.35;1.50;;;21.00;99.70;;;;;;5105706;27;20090;-68
2022/07/23 11:00:11;;;;;;;2.85;1.30;;;21.00;98.90;;;;;;5105964;28;20066;-66
2022/07/23 11:02:42;;;;;;;4.75;1.48;;;21.10;98.60;;;;;;5086627;28;20448;-66
2022/07/23 11:05:10;;;;;;;4.15;1.20;;;21.10;98.70;;;;;;5108817;28;20485;-66
2022/07/23 11:08:10;;;;;;;2.75;1.20;;;21.00;99.60;;;;;;5109263;27;20069;-66
2022/07/23 11:10:36;;;;;;;4.35;1.42;;;21.10;99.90;;;;;;5096254;27;20056;-67
2022/07/23 11:13:32;;;;;;;3.17;1.48;;;21.10;99.90;;;;;;5087228;27;20052;-66
2022/07/23 11:16:01;;;;;;;4.78;1.45;;;21.00;99.20;;;;;;5104198;27;20087;-67
2022/07/23 11:18:44;;;;;;;4.68;1.80;;;20.80;99.70;;;;;;5105233;27;20097;-68
2022/07/23 11:21:31;;;;;;;2.20;1.27;;;20.70;99.20;;;;;;5081063;28;20370;-67
2022/07/23 11:23:57;;;;;;;4.75;1.50;;;20.50;99.70;;;;;;5084529;28;20489;-67
2022/07/23 11:26:41;;;;;;;4.28;1.70;;;20.30;99.90;;;;;;5106411;28;20052;-67
2022/07/23 11:29:25;;;;;;;4.15;1.50;;;20.30;99.90;;;;;;5084948;28;20513;-67
2022/07/23 11:31:55;;;;;;;2.95;1.60;;;20.30;99.90;;;;;;5082493;28;20052;-67
2022/07/23 11:34:41;;;;;;;4.82;1.40;;;20.40;99.90;;;;;;5091814;27;20532;-68
2022/07/23 11:37:10;;;;;;;3.80;1.33;;;20.30;99.90;;;;;;5089380;28;20097;-68
2022/07/23 11:39:37;;;;;;;2.92;1.35;;;20.30;99.90;;;;;;5111168;28;20039;-67
2022/07/23 11:42:05;;;;;;;3.80;1.40;;;20.30;99.90;;;;;;5115183;28;20096;-68
2022/07/23 11:44:34;;;;;;;5.25;1.67;;;20.30;99.90;;;;;;5113640;28;20082;-67
2022/07/23 11:47:03;;;;;;;2.20;1.50;;;20.30;99.90;;;;;;5094366;28;20081;-68
2022/07/23 11:49:29;;;;;;;3.17;1.52;;;20.20;99.90;;;;;;5093092;28;20052;-67
2022/07/23 11:52:15;;;;;;;3.17;1.55;;;20.30;99.90;;;;;;5076089;28;20585;-67
2022/07/23 11:55:19;;;;;;;3.80;1.40;;;20.50;99.90;;;;;;5082329;28;20055;-67
2022/07/23 11:57:45;;;;;;;4.82;1.70;;;20.70;99.90;;;;;;5074228;28;20363;-68
2022/07/23 12:00:22;;;;;;;5.10;1.80;;;20.90;99.90;;;;;;5113688;28;20481;-66
2022/07/23 12:02:52;;;;;;;5.55;1.70;;;20.80;99.50;;;;;;5110507;28;20556;-67
2022/07/23 12:05:20;;;;;;;6.15;1.45;;;20.90;99.60;;;;;;5111305;28;20409;-67
2022/07/23 12:07:54;;;;;;;6.78;1.58;;;20.80;99.90;;;;;;5094808;28;20070;-67
2022/07/23 12:10:23;;;;;;;5.32;1.60;;;20.90;99.90;;;;;;5094449;28;20047;-67
2022/07/23 12:12:49;;;;;;;3.72;1.20;;;21.20;99.90;;;;;;5114622;28;20040;-66
2022/07/23 12:15:19;;;;;;;3.95;1.67;;;21.40;99.80;;;;;;5077990;28;20036;-67
2022/07/23 12:17:46;;;;;;;5.10;1.40;;;21.40;98.70;;;;;;5103757;28;20089;-67
2022/07/23 12:20:24;;;;;;;2.80;1.50;;;21.50;99.50;;;;;;5103033;28;20044;-67
2022/07/23 12:22:57;;;;;;;5.90;1.40;;;21.70;99.90;;;;;;5091318;28;20494;-66
2022/07/23 12:25:26;;;;;;;3.08;1.40;;;21.80;99.80;;;;;;5085650;28;20440;-67
2022/07/23 12:28:14;;;;;;;5.75;1.58;;;21.90;99.60;;;;;;5114000;28;20052;-67
2022/07/23 12:30:43;;;;;;;6.27;1.53;;;21.90;99.70;;;;;;5098745;28;20043;-66
2022/07/23 12:33:15;;;;;;;6.40;1.50;;;22.10;99.40;;;;;;5100505;28;20391;-68
2022/07/23 12:35:44;;;;;;;4.63;1.40;;;22.10;98.30;;;;;;5093482;28;20434;-67
2022/07/23 12:38:17;;;;;;;2.60;1.35;;;21.90;98.40;;;;;;5094171;28;20051;-68
2022/07/23 12:40:51;;;;;;;14.18;1.85;;;21.80;98.20;;;;;;5093640;28;20051;-68
2022/07/23 12:43:33;;;;;;;4.50;1.40;;;21.70;98.60;;;;;;5112757;28;20051;-67
2022/07/23 12:46:11;;;;;;;5.00;1.42;;;21.70;98.30;;;;;;5113152;27;20062;-66
2022/07/23 12:48:38;;;;;;;4.38;1.55;;;21.60;97.50;;;;;;5093813;28;20044;-66
2022/07/23 12:51:14;;;;;;;3.55;1.30;;;21.50;98.60;;;;;;5093069;28;20040;-69
2022/07/23 12:53:43;;;;;;;3.88;1.70;;;21.70;98.60;;;;;;5093183;28;20044;-67